sensor_id;sensor_type;location;lat;lon;timestamp;P1;durP1;ratioP1;P2;durP2;ratioP2
10144;SDS011;5113;41.822;23.564;2022-09-28T00:02:14;5.93;;;5.53;;
10144;SDS011;5113;41.822;23.564;2022-09-28T00:05:21;6.13;;;5.63;;
10144;SDS011;5113;41.822;23.564;2022-09-28T00:08:30;6.97;;;6.50;;
10144;SDS011;5113;41.822;23.564;2022-09-28T00:11:37;9.37;;;5.37;;
10144;SDS011;5113;41.822;23.564;2022-09-28T00:14:45;8.07;;;5.60;;
10144;SDS011;5113;41.822;23.564;2022-09-28T00:17:51;22.57;;;21.23;;
10144;SDS011;5113;41.822;23.564;2022-09-28T00:20:58;6.40;;;5.77;;
10144;SDS011;5113;41.822;23.564;2022-09-28T00:24:06;6.10;;;5.70;;
10144;SDS011;5113;41.822;23.564;2022-09-28T00:27:25;5.00;;;4.70;;
10144;SDS011;5113;41.822;23.564;2022-09-28T00:30:32;5.57;;;5.23;;
10144;SDS011;5113;41.822;23.564;2022-09-28T00:33:38;5.77;;;5.07;;
10144;SDS011;5113;41.822;23.564;2022-09-28T00:36:45;5.10;;;4.70;;
10144;SDS011;5113;41.822;23.564;2022-09-28T00:39:52;3.30;;;3.10;;
10144;SDS011;5113;41.822;23.564;2022-09-28T00:46:25;3.53;;;3.33;;
10144;SDS011;5113;41.822;23.564;2022-09-28T00:49:37;3.87;;;3.60;;
10144;SDS011;5113;41.822;23.564;2022-09-28T00:52:49;6.50;;;3.93;;
10144;SDS011;5113;41.822;23.564;2022-09-28T00:56:00;4.70;;;4.17;;
10144;SDS011;5113;41.822;23.564;2022-09-28T00:59:10;20.43;;;19.37;;
10144;SDS011;5113;41.822;23.564;2022-09-28T01:02:18;7.43;;;4.27;;
10144;SDS011;5113;41.822;23.564;2022-09-28T01:05:25;4.27;;;3.93;;
10144;SDS011;5113;41.822;23.564;2022-09-28T01:08:33;4.30;;;3.87;;
10144;SDS011;5113;41.822;23.564;2022-09-28T01:11:40;3.67;;;3.40;;
10144;SDS011;5113;41.822;23.564;2022-09-28T01:14:47;4.10;;;3.70;;
10144;SDS011;5113;41.822;23.564;2022-09-28T01:17:59;3.83;;;3.63;;
10144;SDS011;5113;41.822;23.564;2022-09-28T01:21:14;4.17;;;3.87;;
10144;SDS011;5113;41.822;23.564;2022-09-28T01:24:30;4.30;;;4.10;;
10144;SDS011;5113;41.822;23.564;2022-09-28T01:27:48;13.13;;;4.80;;
10144;SDS011;5113;41.822;23.564;2022-09-28T01:31:01;5.07;;;4.83;;
10144;SDS011;5113;41.822;23.564;2022-09-28T01:34:13;4.87;;;4.57;;
10144;SDS011;5113;41.822;23.564;2022-09-28T01:37:24;4.90;;;4.50;;
10144;SDS011;5113;41.822;23.564;2022-09-28T01:40:35;6.03;;;5.73;;
10144;SDS011;5113;41.822;23.564;2022-09-28T01:43:45;5.07;;;4.87;;
10144;SDS011;5113;41.822;23.564;2022-09-28T01:46:54;4.57;;;4.37;;
10144;SDS011;5113;41.822;23.564;2022-09-28T01:50:08;5.10;;;4.80;;
10144;SDS011;5113;41.822;23.564;2022-09-28T01:53:17;5.33;;;5.03;;
10144;SDS011;5113;41.822;23.564;2022-09-28T01:56:29;5.20;;;4.90;;
10144;SDS011;5113;41.822;23.564;2022-09-28T01:59:45;5.10;;;4.80;;
10144;SDS011;5113;41.822;23.564;2022-09-28T02:02:59;4.80;;;4.50;;
10144;SDS011;5113;41.822;23.564;2022-09-28T02:06:12;5.30;;;5.00;;
10144;SDS011;5113;41.822;23.564;2022-09-28T02:09:24;5.47;;;5.07;;
10144;SDS011;5113;41.822;23.564;2022-09-28T02:12:38;10.87;;;9.97;;
10144;SDS011;5113;41.822;23.564;2022-09-28T02:15:50;5.47;;;5.07;;
10144;SDS011;5113;41.822;23.564;2022-09-28T02:19:03;5.60;;;5.10;;
10144;SDS011;5113;41.822;23.564;2022-09-28T02:22:12;5.27;;;4.87;;
10144;SDS011;5113;41.822;23.564;2022-09-28T02:25:27;5.63;;;5.23;;
10144;SDS011;5113;41.822;23.564;2022-09-28T02:28:39;5.53;;;5.20;;
10144;SDS011;5113;41.822;23.564;2022-09-28T02:31:47;6.47;;;5.83;;
10144;SDS011;5113;41.822;23.564;2022-09-28T02:34:53;5.73;;;5.30;;
10144;SDS011;5113;41.822;23.564;2022-09-28T02:38:00;6.00;;;5.60;;
10144;SDS011;5113;41.822;23.564;2022-09-28T02:41:08;6.37;;;5.97;;
10144;SDS011;5113;41.822;23.564;2022-09-28T02:48:05;5.37;;;5.07;;
10144;SDS011;5113;41.822;23.564;2022-09-28T02:51:32;5.90;;;5.50;;
10144;SDS011;5113;41.822;23.564;2022-09-28T02:54:53;6.00;;;5.50;;
10144;SDS011;5113;41.822;23.564;2022-09-28T02:58:24;18.53;;;17.47;;
10144;SDS011;5113;41.822;23.564;2022-09-28T03:01:41;4.70;;;4.40;;
10144;SDS011;5113;41.822;23.564;2022-09-28T03:05:11;4.87;;;4.43;;
10144;SDS011;5113;41.822;23.564;2022-09-28T03:08:21;4.97;;;4.53;;
10144;SDS011;5113;41.822;23.564;2022-09-28T03:11:33;5.53;;;5.03;;
10144;SDS011;5113;41.822;23.564;2022-09-28T03:14:45;5.83;;;5.33;;
10144;SDS011;5113;41.822;23.564;2022-09-28T03:17:51;5.70;;;5.20;;
10144;SDS011;5113;41.822;23.564;2022-09-28T03:20:59;5.63;;;5.17;;
10144;SDS011;5113;41.822;23.564;2022-09-28T03:24:08;6.00;;;4.20;;
10144;SDS011;5113;41.822;23.564;2022-09-28T03:27:15;5.40;;;4.90;;
10144;SDS011;5113;41.822;23.564;2022-09-28T03:30:21;20.33;;;19.07;;
10144;SDS011;5113;41.822;23.564;2022-09-28T03:33:27;4.53;;;4.17;;
10144;SDS011;5113;41.822;23.564;2022-09-28T03:36:35;4.43;;;4.10;;
10144;SDS011;5113;41.822;23.564;2022-09-28T03:39:42;11.20;;;10.33;;
10144;SDS011;5113;41.822;23.564;2022-09-28T03:42:48;6.03;;;5.53;;
10144;SDS011;5113;41.822;23.564;2022-09-28T03:45:54;7.40;;;5.07;;
10144;SDS011;5113;41.822;23.564;2022-09-28T03:49:02;5.07;;;4.77;;
10144;SDS011;5113;41.822;23.564;2022-09-28T03:52:10;4.77;;;4.47;;
10144;SDS011;5113;41.822;23.564;2022-09-28T03:55:17;6.10;;;5.50;;
10144;SDS011;5113;41.822;23.564;2022-09-28T03:58:24;5.93;;;5.40;;
10144;SDS011;5113;41.822;23.564;2022-09-28T04:01:33;7.70;;;6.90;;
10144;SDS011;5113;41.822;23.564;2022-09-28T04:04:39;3.70;;;3.50;;
10144;SDS011;5113;41.822;23.564;2022-09-28T04:07:47;4.53;;;4.17;;
10144;SDS011;5113;41.822;23.564;2022-09-28T04:10:54;4.57;;;4.27;;
10144;SDS011;5113;41.822;23.564;2022-09-28T04:14:02;4.93;;;4.57;;
10144;SDS011;5113;41.822;23.564;2022-09-28T04:17:08;5.17;;;4.13;;
10144;SDS011;5113;41.822;23.564;2022-09-28T04:20:15;5.40;;;4.10;;
10144;SDS011;5113;41.822;23.564;2022-09-28T04:23:22;4.27;;;4.07;;
10144;SDS011;5113;41.822;23.564;2022-09-28T04:26:29;4.37;;;4.17;;
10144;SDS011;5113;41.822;23.564;2022-09-28T04:29:35;5.80;;;5.30;;
10144;SDS011;5113;41.822;23.564;2022-09-28T04:32:42;7.57;;;6.97;;
10144;SDS011;5113;41.822;23.564;2022-09-28T04:35:48;7.77;;;5.73;;
10144;SDS011;5113;41.822;23.564;2022-09-28T04:38:55;8.10;;;7.53;;
10144;SDS011;5113;41.822;23.564;2022-09-28T04:42:02;13.20;;;6.10;;
10144;SDS011;5113;41.822;23.564;2022-09-28T04:45:09;7.73;;;7.03;;
10144;SDS011;5113;41.822;23.564;2022-09-28T04:48:15;19.00;;;17.30;;
10144;SDS011;5113;41.822;23.564;2022-09-28T04:51:21;10.17;;;7.90;;
10144;SDS011;5113;41.822;23.564;2022-09-28T04:54:29;8.67;;;7.50;;
10144;SDS011;5113;41.822;23.564;2022-09-28T04:57:35;11.67;;;10.87;;
10144;SDS011;5113;41.822;23.564;2022-09-28T05:00:41;5.90;;;5.30;;
10144;SDS011;5113;41.822;23.564;2022-09-28T05:03:48;5.40;;;5.00;;
10144;SDS011;5113;41.822;23.564;2022-09-28T05:06:54;7.53;;;4.87;;
10144;SDS011;5113;41.822;23.564;2022-09-28T05:10:02;5.10;;;4.70;;
10144;SDS011;5113;41.822;23.564;2022-09-28T05:13:09;4.20;;;3.70;;
10144;SDS011;5113;41.822;23.564;2022-09-28T05:16:16;3.73;;;3.40;;
10144;SDS011;5113;41.822;23.564;2022-09-28T05:19:23;3.57;;;3.23;;
10144;SDS011;5113;41.822;23.564;2022-09-28T05:22:31;4.23;;;3.90;;
10144;SDS011;5113;41.822;23.564;2022-09-28T05:25:39;4.67;;;4.27;;
10144;SDS011;5113;41.822;23.564;2022-09-28T05:28:45;6.73;;;5.00;;
10144;SDS011;5113;41.822;23.564;2022-09-28T05:31:52;13.87;;;5.07;;
10144;SDS011;5113;41.822;23.564;2022-09-28T05:34:58;5.10;;;4.33;;
10144;SDS011;5113;41.822;23.564;2022-09-28T05:38:05;5.07;;;4.63;;
10144;SDS011;5113;41.822;23.564;2022-09-28T05:41:13;4.13;;;3.83;;
10144;SDS011;5113;41.822;23.564;2022-09-28T05:44:19;4.97;;;3.87;;
10144;SDS011;5113;41.822;23.564;2022-09-28T05:47:25;8.53;;;4.77;;
10144;SDS011;5113;41.822;23.564;2022-09-28T05:50:32;5.80;;;5.30;;
10144;SDS011;5113;41.822;23.564;2022-09-28T05:53:38;4.17;;;3.87;;
10144;SDS011;5113;41.822;23.564;2022-09-28T05:56:46;5.23;;;4.73;;
10144;SDS011;5113;41.822;23.564;2022-09-28T05:59:52;6.83;;;4.27;;
10144;SDS011;5113;41.822;23.564;2022-09-28T06:02:59;6.00;;;5.40;;
10144;SDS011;5113;41.822;23.564;2022-09-28T06:06:11;12.20;;;11.33;;
10144;SDS011;5113;41.822;23.564;2022-09-28T06:09:18;3.67;;;3.20;;
10144;SDS011;5113;41.822;23.564;2022-09-28T06:12:30;4.03;;;3.63;;
10144;SDS011;5113;41.822;23.564;2022-09-28T06:15:40;3.93;;;3.63;;
10144;SDS011;5113;41.822;23.564;2022-09-28T06:18:47;5.73;;;4.33;;
10144;SDS011;5113;41.822;23.564;2022-09-28T06:21:53;5.30;;;3.87;;
10144;SDS011;5113;41.822;23.564;2022-09-28T06:25:03;4.00;;;3.60;;
10144;SDS011;5113;41.822;23.564;2022-09-28T06:28:12;3.80;;;3.40;;
10144;SDS011;5113;41.822;23.564;2022-09-28T06:31:19;5.13;;;4.63;;
10144;SDS011;5113;41.822;23.564;2022-09-28T06:34:27;4.33;;;4.03;;
10144;SDS011;5113;41.822;23.564;2022-09-28T06:37:33;4.20;;;3.90;;
10144;SDS011;5113;41.822;23.564;2022-09-28T06:40:39;5.80;;;5.10;;
10144;SDS011;5113;41.822;23.564;2022-09-28T06:43:47;4.70;;;4.27;;
10144;SDS011;5113;41.822;23.564;2022-09-28T06:46:54;3.93;;;3.63;;
10144;SDS011;5113;41.822;23.564;2022-09-28T06:50:00;3.87;;;3.50;;
10144;SDS011;5113;41.822;23.564;2022-09-28T06:53:07;4.40;;;4.10;;
10144;SDS011;5113;41.822;23.564;2022-09-28T06:56:16;4.03;;;3.73;;
10144;SDS011;5113;41.822;23.564;2022-09-28T06:59:25;4.87;;;4.53;;
10144;SDS011;5113;41.822;23.564;2022-09-28T07:02:33;5.60;;;5.10;;
10144;SDS011;5113;41.822;23.564;2022-09-28T07:05:40;8.60;;;8.00;;
10144;SDS011;5113;41.822;23.564;2022-09-28T07:08:47;4.93;;;4.60;;
10144;SDS011;5113;41.822;23.564;2022-09-28T07:12:13;7.43;;;5.17;;
10144;SDS011;5113;41.822;23.564;2022-09-28T07:15:21;5.70;;;5.13;;
10144;SDS011;5113;41.822;23.564;2022-09-28T07:18:28;7.97;;;5.40;;
10144;SDS011;5113;41.822;23.564;2022-09-28T07:21:34;4.57;;;4.13;;
10144;SDS011;5113;41.822;23.564;2022-09-28T07:24:41;5.57;;;3.33;;
10144;SDS011;5113;41.822;23.564;2022-09-28T12:06:44;3.20;;;3.00;;
10144;SDS011;5113;41.822;23.564;2022-09-28T12:09:55;3.37;;;3.10;;
10144;SDS011;5113;41.822;23.564;2022-09-28T12:13:05;3.97;;;3.27;;
10144;SDS011;5113;41.822;23.564;2022-09-28T12:16:18;3.53;;;3.33;;
10144;SDS011;5113;41.822;23.564;2022-09-28T12:19:49;2.80;;;2.70;;
10144;SDS011;5113;41.822;23.564;2022-09-28T12:23:04;2.83;;;2.73;;
10144;SDS011;5113;41.822;23.564;2022-09-28T12:26:23;3.27;;;2.97;;
10144;SDS011;5113;41.822;23.564;2022-09-28T12:29:42;3.10;;;3.00;;
10144;SDS011;5113;41.822;23.564;2022-09-28T12:32:52;3.47;;;3.27;;
10144;SDS011;5113;41.822;23.564;2022-09-28T12:36:06;3.37;;;3.17;;
10144;SDS011;5113;41.822;23.564;2022-09-28T12:39:30;2.97;;;2.73;;
10144;SDS011;5113;41.822;23.564;2022-09-28T12:46:47;3.20;;;3.00;;
10144;SDS011;5113;41.822;23.564;2022-09-28T12:50:06;3.90;;;3.60;;
10144;SDS011;5113;41.822;23.564;2022-09-28T12:53:46;6.17;;;4.10;;
10144;SDS011;5113;41.822;23.564;2022-09-28T12:57:28;3.40;;;3.10;;
10144;SDS011;5113;41.822;23.564;2022-09-28T13:00:45;3.40;;;3.20;;
10144;SDS011;5113;41.822;23.564;2022-09-28T13:04:17;4.13;;;3.78;;
10144;SDS011;5113;41.822;23.564;2022-09-28T13:07:34;2.97;;;2.87;;
10144;SDS011;5113;41.822;23.564;2022-09-28T13:10:54;3.33;;;3.13;;
10144;SDS011;5113;41.822;23.564;2022-09-28T13:18:03;3.43;;;3.30;;
10144;SDS011;5113;41.822;23.564;2022-09-28T13:21:18;3.50;;;3.30;;
10144;SDS011;5113;41.822;23.564;2022-09-28T13:24:32;4.03;;;3.70;;
10144;SDS011;5113;41.822;23.564;2022-09-28T13:27:45;3.80;;;3.60;;
10144;SDS011;5113;41.822;23.564;2022-09-28T13:30:57;5.17;;;4.80;;
10144;SDS011;5113;41.822;23.564;2022-09-28T13:34:05;3.70;;;3.53;;
10144;SDS011;5113;41.822;23.564;2022-09-28T13:37:19;3.80;;;3.50;;
10144;SDS011;5113;41.822;23.564;2022-09-28T13:40:41;3.90;;;3.70;;
10144;SDS011;5113;41.822;23.564;2022-09-28T13:44:22;3.53;;;3.43;;
10144;SDS011;5113;41.822;23.564;2022-09-28T13:47:53;5.63;;;3.40;;
10144;SDS011;5113;41.822;23.564;2022-09-28T13:51:11;3.50;;;3.40;;
10144;SDS011;5113;41.822;23.564;2022-09-28T13:54:32;3.83;;;3.67;;
10144;SDS011;5113;41.822;23.564;2022-09-28T13:58:00;4.10;;;3.87;;
10144;SDS011;5113;41.822;23.564;2022-09-28T14:01:10;3.93;;;3.60;;
10144;SDS011;5113;41.822;23.564;2022-09-28T14:04:22;3.90;;;3.70;;
10144;SDS011;5113;41.822;23.564;2022-09-28T14:11:38;4.00;;;3.60;;
10144;SDS011;5113;41.822;23.564;2022-09-28T14:14:47;3.60;;;3.40;;
10144;SDS011;5113;41.822;23.564;2022-09-28T14:18:00;3.90;;;3.70;;
10144;SDS011;5113;41.822;23.564;2022-09-28T14:21:18;10.77;;;10.27;;
10144;SDS011;5113;41.822;23.564;2022-09-28T14:24:38;3.77;;;3.60;;
10144;SDS011;5113;41.822;23.564;2022-09-28T14:28:01;2.77;;;2.67;;
10144;SDS011;5113;41.822;23.564;2022-09-28T14:31:24;3.40;;;3.20;;
10144;SDS011;5113;41.822;23.564;2022-09-28T14:34:34;3.97;;;3.57;;
10144;SDS011;5113;41.822;23.564;2022-09-28T14:37:47;3.10;;;2.90;;
10144;SDS011;5113;41.822;23.564;2022-09-28T14:41:25;3.50;;;3.20;;
10144;SDS011;5113;41.822;23.564;2022-09-28T14:44:46;3.80;;;3.50;;
10144;SDS011;5113;41.822;23.564;2022-09-28T14:48:45;9.87;;;9.37;;
10144;SDS011;5113;41.822;23.564;2022-09-28T14:55:12;4.43;;;4.03;;
10144;SDS011;5113;41.822;23.564;2022-09-28T14:58:21;3.90;;;3.40;;
10144;SDS011;5113;41.822;23.564;2022-09-28T15:01:29;3.90;;;3.50;;
10144;SDS011;5113;41.822;23.564;2022-09-28T15:04:38;4.70;;;4.40;;
10144;SDS011;5113;41.822;23.564;2022-09-28T15:07:47;5.63;;;4.30;;
10144;SDS011;5113;41.822;23.564;2022-09-28T15:10:55;4.30;;;4.10;;
10144;SDS011;5113;41.822;23.564;2022-09-28T15:14:05;4.63;;;4.33;;
10144;SDS011;5113;41.822;23.564;2022-09-28T15:17:15;9.37;;;5.07;;
10144;SDS011;5113;41.822;23.564;2022-09-28T15:20:27;4.60;;;4.30;;
10144;SDS011;5113;41.822;23.564;2022-09-28T15:23:38;4.50;;;4.17;;
10144;SDS011;5113;41.822;23.564;2022-09-28T15:26:46;5.10;;;4.70;;
10144;SDS011;5113;41.822;23.564;2022-09-28T15:29:56;11.57;;;10.93;;
10144;SDS011;5113;41.822;23.564;2022-09-28T15:33:03;6.90;;;6.20;;
10144;SDS011;5113;41.822;23.564;2022-09-28T15:36:28;7.07;;;5.63;;
10144;SDS011;5113;41.822;23.564;2022-09-28T15:39:37;6.37;;;4.70;;
10144;SDS011;5113;41.822;23.564;2022-09-28T15:42:44;4.10;;;3.90;;
10144;SDS011;5113;41.822;23.564;2022-09-28T15:45:54;4.47;;;3.30;;
10144;SDS011;5113;41.822;23.564;2022-09-28T15:49:06;3.80;;;3.50;;
10144;SDS011;5113;41.822;23.564;2022-09-28T15:52:31;5.87;;;4.63;;
10144;SDS011;5113;41.822;23.564;2022-09-28T15:55:42;11.33;;;6.63;;
10144;SDS011;5113;41.822;23.564;2022-09-28T16:02:14;75.40;;;29.07;;
10144;SDS011;5113;41.822;23.564;2022-09-28T16:05:33;38.90;;;19.17;;
10144;SDS011;5113;41.822;23.564;2022-09-28T16:08:46;20.23;;;9.97;;
10144;SDS011;5113;41.822;23.564;2022-09-28T16:11:53;25.13;;;10.63;;
10144;SDS011;5113;41.822;23.564;2022-09-28T16:15:02;8.20;;;6.10;;
10144;SDS011;5113;41.822;23.564;2022-09-28T16:18:15;7.93;;;6.10;;
10144;SDS011;5113;41.822;23.564;2022-09-28T16:21:27;14.60;;;8.70;;
10144;SDS011;5113;41.822;23.564;2022-09-28T16:24:45;17.37;;;12.03;;
10144;SDS011;5113;41.822;23.564;2022-09-28T16:27:59;19.63;;;10.93;;
10144;SDS011;5113;41.822;23.564;2022-09-28T16:31:06;27.70;;;14.03;;
10144;SDS011;5113;41.822;23.564;2022-09-28T16:34:30;13.17;;;10.20;;
10144;SDS011;5113;41.822;23.564;2022-09-28T16:37:37;15.10;;;8.83;;
10144;SDS011;5113;41.822;23.564;2022-09-28T16:40:47;8.10;;;6.00;;
10144;SDS011;5113;41.822;23.564;2022-09-28T16:43:57;5.53;;;4.93;;
10144;SDS011;5113;41.822;23.564;2022-09-28T16:47:04;6.40;;;4.40;;
10144;SDS011;5113;41.822;23.564;2022-09-28T16:50:12;6.03;;;4.33;;
10144;SDS011;5113;41.822;23.564;2022-09-28T16:53:20;4.70;;;4.27;;
10144;SDS011;5113;41.822;23.564;2022-09-28T16:56:45;4.20;;;3.83;;
10144;SDS011;5113;41.822;23.564;2022-09-28T16:59:51;11.93;;;8.07;;
10144;SDS011;5113;41.822;23.564;2022-09-28T17:02:57;7.30;;;5.90;;
10144;SDS011;5113;41.822;23.564;2022-09-28T17:06:04;9.87;;;9.17;;
10144;SDS011;5113;41.822;23.564;2022-09-28T17:09:11;6.83;;;5.37;;
10144;SDS011;5113;41.822;23.564;2022-09-28T17:12:20;11.23;;;8.53;;
10144;SDS011;5113;41.822;23.564;2022-09-28T17:15:28;33.97;;;16.60;;
10144;SDS011;5113;41.822;23.564;2022-09-28T17:18:34;36.50;;;16.30;;
10144;SDS011;5113;41.822;23.564;2022-09-28T17:21:41;77.90;;;28.17;;
10144;SDS011;5113;41.822;23.564;2022-09-28T17:24:47;75.20;;;36.67;;
10144;SDS011;5113;41.822;23.564;2022-09-28T17:27:55;81.07;;;39.27;;
10144;SDS011;5113;41.822;23.564;2022-09-28T17:31:03;80.83;;;40.17;;
10144;SDS011;5113;41.822;23.564;2022-09-28T17:34:12;77.93;;;34.33;;
10144;SDS011;5113;41.822;23.564;2022-09-28T17:37:19;57.50;;;27.43;;
10144;SDS011;5113;41.822;23.564;2022-09-28T17:40:26;62.43;;;27.57;;
10144;SDS011;5113;41.822;23.564;2022-09-28T17:43:35;38.07;;;20.80;;
10144;SDS011;5113;41.822;23.564;2022-09-28T17:46:41;11.63;;;7.90;;
10144;SDS011;5113;41.822;23.564;2022-09-28T17:49:52;13.20;;;9.10;;
10144;SDS011;5113;41.822;23.564;2022-09-28T17:52:58;10.27;;;6.60;;
10144;SDS011;5113;41.822;23.564;2022-09-28T17:56:08;24.87;;;11.33;;
10144;SDS011;5113;41.822;23.564;2022-09-28T17:59:17;40.40;;;21.10;;
10144;SDS011;5113;41.822;23.564;2022-09-28T18:02:23;29.50;;;16.23;;
10144;SDS011;5113;41.822;23.564;2022-09-28T18:05:30;26.97;;;16.43;;
10144;SDS011;5113;41.822;23.564;2022-09-28T18:08:36;18.53;;;12.07;;
10144;SDS011;5113;41.822;23.564;2022-09-28T18:11:43;19.63;;;12.20;;
10144;SDS011;5113;41.822;23.564;2022-09-28T18:14:51;26.53;;;17.53;;
10144;SDS011;5113;41.822;23.564;2022-09-28T18:17:58;21.10;;;13.67;;
10144;SDS011;5113;41.822;23.564;2022-09-28T18:21:04;23.70;;;12.53;;
10144;SDS011;5113;41.822;23.564;2022-09-28T18:24:10;21.20;;;16.23;;
10144;SDS011;5113;41.822;23.564;2022-09-28T18:27:17;15.33;;;11.07;;
10144;SDS011;5113;41.822;23.564;2022-09-28T18:30:25;20.17;;;13.90;;
10144;SDS011;5113;41.822;23.564;2022-09-28T18:33:32;17.77;;;10.23;;
10144;SDS011;5113;41.822;23.564;2022-09-28T18:36:38;9.63;;;6.50;;
10144;SDS011;5113;41.822;23.564;2022-09-28T18:39:45;8.47;;;5.97;;
10144;SDS011;5113;41.822;23.564;2022-09-28T18:42:51;9.13;;;6.50;;
10144;SDS011;5113;41.822;23.564;2022-09-28T18:45:58;11.60;;;7.67;;
10144;SDS011;5113;41.822;23.564;2022-09-28T18:49:10;15.23;;;9.47;;
10144;SDS011;5113;41.822;23.564;2022-09-28T18:52:17;18.50;;;11.10;;
10144;SDS011;5113;41.822;23.564;2022-09-28T18:55:23;13.93;;;9.67;;
10144;SDS011;5113;41.822;23.564;2022-09-28T18:58:32;12.97;;;10.00;;
10144;SDS011;5113;41.822;23.564;2022-09-28T19:01:40;17.20;;;11.07;;
10144;SDS011;5113;41.822;23.564;2022-09-28T19:04:46;13.33;;;8.07;;
10144;SDS011;5113;41.822;23.564;2022-09-28T19:07:52;17.17;;;15.33;;
10144;SDS011;5113;41.822;23.564;2022-09-28T19:11:03;7.13;;;6.40;;
10144;SDS011;5113;41.822;23.564;2022-09-28T19:14:11;9.00;;;6.17;;
10144;SDS011;5113;41.822;23.564;2022-09-28T19:17:19;8.67;;;6.97;;
10144;SDS011;5113;41.822;23.564;2022-09-28T19:20:26;9.60;;;7.57;;
10144;SDS011;5113;41.822;23.564;2022-09-28T19:23:32;13.43;;;11.97;;
10144;SDS011;5113;41.822;23.564;2022-09-28T19:26:40;10.57;;;9.20;;
10144;SDS011;5113;41.822;23.564;2022-09-28T19:30:05;24.67;;;12.47;;
10144;SDS011;5113;41.822;23.564;2022-09-28T19:33:13;26.67;;;12.87;;
10144;SDS011;5113;41.822;23.564;2022-09-28T19:36:21;21.87;;;11.03;;
10144;SDS011;5113;41.822;23.564;2022-09-28T19:39:29;26.90;;;12.40;;
10144;SDS011;5113;41.822;23.564;2022-09-28T19:42:37;20.57;;;9.13;;
10144;SDS011;5113;41.822;23.564;2022-09-28T19:45:43;15.93;;;7.57;;
10144;SDS011;5113;41.822;23.564;2022-09-28T19:48:51;22.83;;;12.30;;
10144;SDS011;5113;41.822;23.564;2022-09-28T19:52:00;45.70;;;20.33;;
10144;SDS011;5113;41.822;23.564;2022-09-28T19:55:21;43.57;;;21.27;;
10144;SDS011;5113;41.822;23.564;2022-09-28T19:58:29;25.13;;;13.93;;
10144;SDS011;5113;41.822;23.564;2022-09-28T20:01:37;23.33;;;13.57;;
10144;SDS011;5113;41.822;23.564;2022-09-28T20:04:44;16.20;;;11.53;;
10144;SDS011;5113;41.822;23.564;2022-09-28T20:07:50;24.53;;;11.43;;
10144;SDS011;5113;41.822;23.564;2022-09-28T20:10:57;27.37;;;12.93;;
10144;SDS011;5113;41.822;23.564;2022-09-28T20:14:05;50.67;;;27.40;;
10144;SDS011;5113;41.822;23.564;2022-09-28T20:17:13;14.13;;;8.77;;
10144;SDS011;5113;41.822;23.564;2022-09-28T20:20:20;13.03;;;6.90;;
10144;SDS011;5113;41.822;23.564;2022-09-28T20:23:27;24.00;;;21.87;;
10144;SDS011;5113;41.822;23.564;2022-09-28T20:26:33;10.20;;;6.77;;
10144;SDS011;5113;41.822;23.564;2022-09-28T20:29:41;32.93;;;16.20;;
10144;SDS011;5113;41.822;23.564;2022-09-28T20:32:47;18.13;;;9.57;;
10144;SDS011;5113;41.822;23.564;2022-09-28T20:35:55;19.07;;;9.97;;
10144;SDS011;5113;41.822;23.564;2022-09-28T20:39:03;21.17;;;10.87;;
10144;SDS011;5113;41.822;23.564;2022-09-28T20:42:09;24.80;;;12.87;;
10144;SDS011;5113;41.822;23.564;2022-09-28T20:45:15;18.23;;;11.30;;
10144;SDS011;5113;41.822;23.564;2022-09-28T20:48:22;15.33;;;10.10;;
10144;SDS011;5113;41.822;23.564;2022-09-28T20:51:30;21.60;;;10.07;;
10144;SDS011;5113;41.822;23.564;2022-09-28T20:54:36;14.13;;;9.80;;
10144;SDS011;5113;41.822;23.564;2022-09-28T20:57:42;20.00;;;10.93;;
10144;SDS011;5113;41.822;23.564;2022-09-28T21:00:49;15.57;;;9.63;;
10144;SDS011;5113;41.822;23.564;2022-09-28T21:03:56;9.97;;;9.03;;
10144;SDS011;5113;41.822;23.564;2022-09-28T21:07:04;15.07;;;10.63;;
10144;SDS011;5113;41.822;23.564;2022-09-28T21:10:10;26.27;;;23.73;;
10144;SDS011;5113;41.822;23.564;2022-09-28T21:13:16;13.97;;;8.13;;
10144;SDS011;5113;41.822;23.564;2022-09-28T21:16:23;8.63;;;6.33;;
10144;SDS011;5113;41.822;23.564;2022-09-28T21:19:30;7.23;;;6.43;;
10144;SDS011;5113;41.822;23.564;2022-09-28T21:22:38;11.23;;;9.97;;
10144;SDS011;5113;41.822;23.564;2022-09-28T21:25:45;8.73;;;6.40;;
10144;SDS011;5113;41.822;23.564;2022-09-28T21:28:52;7.37;;;6.00;;
10144;SDS011;5113;41.822;23.564;2022-09-28T21:31:59;19.07;;;17.60;;
10144;SDS011;5113;41.822;23.564;2022-09-28T21:35:05;11.93;;;5.93;;
10144;SDS011;5113;41.822;23.564;2022-09-28T21:38:14;5.77;;;5.27;;
10144;SDS011;5113;41.822;23.564;2022-09-28T21:41:20;7.30;;;5.80;;
10144;SDS011;5113;41.822;23.564;2022-09-28T21:44:27;6.50;;;5.87;;
10144;SDS011;5113;41.822;23.564;2022-09-28T21:47:33;7.57;;;4.87;;
10144;SDS011;5113;41.822;23.564;2022-09-28T21:50:40;9.57;;;5.00;;
10144;SDS011;5113;41.822;23.564;2022-09-28T21:53:48;9.33;;;4.37;;
10144;SDS011;5113;41.822;23.564;2022-09-28T21:56:54;6.73;;;5.07;;
10144;SDS011;5113;41.822;23.564;2022-09-28T22:00:00;5.33;;;4.87;;
10144;SDS011;5113;41.822;23.564;2022-09-28T22:03:07;6.63;;;5.90;;
10144;SDS011;5113;41.822;23.564;2022-09-28T22:06:13;9.83;;;6.67;;
10144;SDS011;5113;41.822;23.564;2022-09-28T22:09:22;13.23;;;8.00;;
10144;SDS011;5113;41.822;23.564;2022-09-28T22:12:28;11.80;;;8.10;;
10144;SDS011;5113;41.822;23.564;2022-09-28T22:15:35;8.73;;;7.47;;
10144;SDS011;5113;41.822;23.564;2022-09-28T22:18:41;10.47;;;7.97;;
10144;SDS011;5113;41.822;23.564;2022-09-28T22:21:47;12.53;;;8.20;;
10144;SDS011;5113;41.822;23.564;2022-09-28T22:24:55;11.87;;;7.03;;
10144;SDS011;5113;41.822;23.564;2022-09-28T22:28:01;12.67;;;7.33;;
10144;SDS011;5113;41.822;23.564;2022-09-28T22:31:08;11.23;;;6.30;;
10144;SDS011;5113;41.822;23.564;2022-09-28T22:34:14;10.03;;;7.63;;
10144;SDS011;5113;41.822;23.564;2022-09-28T22:37:20;12.00;;;8.73;;
10144;SDS011;5113;41.822;23.564;2022-09-28T22:40:29;11.77;;;7.83;;
10144;SDS011;5113;41.822;23.564;2022-09-28T22:43:35;12.13;;;7.47;;
10144;SDS011;5113;41.822;23.564;2022-09-28T22:46:41;12.07;;;6.90;;
10144;SDS011;5113;41.822;23.564;2022-09-28T22:49:48;14.10;;;8.87;;
10144;SDS011;5113;41.822;23.564;2022-09-28T22:52:54;6.13;;;5.23;;
10144;SDS011;5113;41.822;23.564;2022-09-28T22:56:02;6.00;;;5.40;;
10144;SDS011;5113;41.822;23.564;2022-09-28T22:59:10;10.43;;;7.40;;
10144;SDS011;5113;41.822;23.564;2022-09-28T23:02:17;7.80;;;6.43;;
10144;SDS011;5113;41.822;23.564;2022-09-28T23:05:23;6.07;;;5.63;;
10144;SDS011;5113;41.822;23.564;2022-09-28T23:08:29;4.93;;;4.53;;
10144;SDS011;5113;41.822;23.564;2022-09-28T23:11:38;6.47;;;4.77;;
10144;SDS011;5113;41.822;23.564;2022-09-28T23:14:43;7.30;;;6.53;;
10144;SDS011;5113;41.822;23.564;2022-09-28T23:17:50;9.57;;;5.97;;
10144;SDS011;5113;41.822;23.564;2022-09-28T23:20:57;10.17;;;5.40;;
10144;SDS011;5113;41.822;23.564;2022-09-28T23:24:04;5.83;;;5.23;;
10144;SDS011;5113;41.822;23.564;2022-09-28T23:27:12;6.60;;;5.40;;
10144;SDS011;5113;41.822;23.564;2022-09-28T23:30:19;11.03;;;5.87;;
10144;SDS011;5113;41.822;23.564;2022-09-28T23:33:26;6.80;;;5.77;;
10144;SDS011;5113;41.822;23.564;2022-09-28T23:36:33;4.13;;;3.73;;
10144;SDS011;5113;41.822;23.564;2022-09-28T23:39:38;6.13;;;5.57;;
10144;SDS011;5113;41.822;23.564;2022-09-28T23:42:46;6.07;;;5.30;;
10144;SDS011;5113;41.822;23.564;2022-09-28T23:45:53;5.43;;;4.90;;
10144;SDS011;5113;41.822;23.564;2022-09-28T23:48:59;7.63;;;5.87;;
10144;SDS011;5113;41.822;23.564;2022-09-28T23:52:06;7.83;;;5.90;;
10144;SDS011;5113;41.822;23.564;2022-09-28T23:55:12;7.50;;;5.97;;
10144;SDS011;5113;41.822;23.564;2022-09-28T23:58:20;11.47;;;5.80;;
